sensor_id;sensor_type;location;lat;lon;timestamp;temperature;humidity
24904;DHT22;12960;50.322;11.124;2022-07-23T00:00:21;21.10;72.40
24904;DHT22;12960;50.322;11.124;2022-07-23T00:01:22;21.10;1.00
24904;DHT22;12960;50.322;11.124;2022-07-23T00:02:23;21.10;1.00
24904;DHT22;12960;50.322;11.124;2022-07-23T00:03:24;21.10;1.00
24904;DHT22;12960;50.322;11.124;2022-07-23T00:04:25;21.10;1.00
24904;DHT22;12960;50.322;11.124;2022-07-23T00:05:26;21.00;1.00
24904;DHT22;12960;50.322;11.124;2022-07-23T00:06:27;21.00;1.00
24904;DHT22;12960;50.322;11.124;2022-07-23T00:07:28;21.10;1.00
24904;DHT22;12960;50.322;11.124;2022-07-23T00:08:29;21.10;1.00
24904;DHT22;12960;50.322;11.124;2022-07-23T00:09:30;21.00;1.00
24904;DHT22;12960;50.322;11.124;2022-07-23T00:10:38;21.00;1.00
24904;DHT22;12960;50.322;11.124;2022-07-23T00:11:42;21.00;1.00
24904;DHT22;12960;50.322;11.124;2022-07-23T00:12:43;21.00;1.00
24904;DHT22;12960;50.322;11.124;2022-07-23T00:13:44;21.00;1.00
24904;DHT22;12960;50.322;11.124;2022-07-23T00:14:45;21.00;1.00
24904;DHT22;12960;50.322;11.124;2022-07-23T00:15:46;21.00;1.00
24904;DHT22;12960;50.322;11.124;2022-07-23T00:16:47;21.00;1.00
24904;DHT22;12960;50.322;11.124;2022-07-23T00:17:48;21.00;1.00
24904;DHT22;12960;50.322;11.124;2022-07-23T00:18:49;21.00;1.00
24904;DHT22;12960;50.322;11.124;2022-07-23T00:19:50;20.90;1.00
24904;DHT22;12960;50.322;11.124;2022-07-23T00:20:51;20.90;1.00
24904;DHT22;12960;50.322;11.124;2022-07-23T00:21:59;20.90;1.00
24904;DHT22;12960;50.322;11.124;2022-07-23T00:23:00;20.90;1.00
24904;DHT22;12960;50.322;11.124;2022-07-23T00:24:01;20.90;1.00
24904;DHT22;12960;50.322;11.124;2022-07-23T00:25:02;20.90;1.00
24904;DHT22;12960;50.322;11.124;2022-07-23T00:26:04;20.90;27.80
24904;DHT22;12960;50.322;11.124;2022-07-23T00:27:05;20.90;83.30
24904;DHT22;12960;50.322;11.124;2022-07-23T00:28:06;20.90;47.80
24904;DHT22;12960;50.322;11.124;2022-07-23T00:29:07;20.80;46.70
24904;DHT22;12960;50.322;11.124;2022-07-23T00:30:08;20.80;82.30
24904;DHT22;12960;50.322;11.124;2022-07-23T00:31:16;20.80;99.90
24904;DHT22;12960;50.322;11.124;2022-07-23T00:32:20;20.80;99.90
24904;DHT22;12960;50.322;11.124;2022-07-23T00:33:21;20.80;99.90
24904;DHT22;12960;50.322;11.124;2022-07-23T00:34:22;20.80;99.90
24904;DHT22;12960;50.322;11.124;2022-07-23T00:35:27;20.80;99.90
24904;DHT22;12960;50.322;11.124;2022-07-23T00:36:29;20.80;99.90
24904;DHT22;12960;50.322;11.124;2022-07-23T00:37:31;20.80;99.90
24904;DHT22;12960;50.322;11.124;2022-07-23T00:38:32;20.80;99.90
24904;DHT22;12960;50.322;11.124;2022-07-23T00:39:34;20.70;99.90
24904;DHT22;12960;50.322;11.124;2022-07-23T00:40:35;20.70;99.90
24904;DHT22;12960;50.322;11.124;2022-07-23T00:41:37;20.70;99.90
24904;DHT22;12960;50.322;11.124;2022-07-23T00:42:38;20.70;1.00
24904;DHT22;12960;50.322;11.124;2022-07-23T00:43:39;20.70;1.00
24904;DHT22;12960;50.322;11.124;2022-07-23T00:44:40;20.70;1.00
24904;DHT22;12960;50.322;11.124;2022-07-23T00:45:41;20.70;1.00
24904;DHT22;12960;50.322;11.124;2022-07-23T00:46:47;20.70;1.00
24904;DHT22;12960;50.322;11.124;2022-07-23T00:47:49;20.60;1.00
24904;DHT22;12960;50.322;11.124;2022-07-23T00:48:55;20.60;99.90
24904;DHT22;12960;50.322;11.124;2022-07-23T00:49:56;20.60;99.90
24904;DHT22;12960;50.322;11.124;2022-07-23T00:50:57;20.60;99.90
24904;DHT22;12960;50.322;11.124;2022-07-23T00:52:01;20.60;99.90
24904;DHT22;12960;50.322;11.124;2022-07-23T00:53:03;20.60;99.90
24904;DHT22;12960;50.322;11.124;2022-07-23T00:54:07;20.50;1.00
24904;DHT22;12960;50.322;11.124;2022-07-23T00:55:10;20.50;1.00
24904;DHT22;12960;50.322;11.124;2022-07-23T00:56:12;20.50;1.00
24904;DHT22;12960;50.322;11.124;2022-07-23T00:57:13;20.40;20.30
24904;DHT22;12960;50.322;11.124;2022-07-23T00:58:15;20.40;99.90
24904;DHT22;12960;50.322;11.124;2022-07-23T00:59:17;20.30;99.90
24904;DHT22;12960;50.322;11.124;2022-07-23T01:00:21;20.30;1.00
24904;DHT22;12960;50.322;11.124;2022-07-23T01:01:31;20.30;99.90
24904;DHT22;12960;50.322;11.124;2022-07-23T01:02:33;20.20;99.90
24904;DHT22;12960;50.322;11.124;2022-07-23T01:03:34;20.20;1.00
24904;DHT22;12960;50.322;11.124;2022-07-23T01:04:36;20.20;1.00
24904;DHT22;12960;50.322;11.124;2022-07-23T01:05:39;20.20;1.00
24904;DHT22;12960;50.322;11.124;2022-07-23T01:06:41;20.30;1.00
24904;DHT22;12960;50.322;11.124;2022-07-23T01:07:43;20.30;1.00
24904;DHT22;12960;50.322;11.124;2022-07-23T01:08:46;20.30;1.00
24904;DHT22;12960;50.322;11.124;2022-07-23T01:09:47;20.30;1.00
24904;DHT22;12960;50.322;11.124;2022-07-23T01:10:50;20.30;1.00
24904;DHT22;12960;50.322;11.124;2022-07-23T01:11:54;20.30;1.00
24904;DHT22;12960;50.322;11.124;2022-07-23T01:12:56;20.30;1.00
24904;DHT22;12960;50.322;11.124;2022-07-23T01:13:57;20.20;1.00
24904;DHT22;12960;50.322;11.124;2022-07-23T01:14:59;20.20;1.00
24904;DHT22;12960;50.322;11.124;2022-07-23T01:16:00;20.30;1.00
24904;DHT22;12960;50.322;11.124;2022-07-23T01:17:02;20.30;99.90
24904;DHT22;12960;50.322;11.124;2022-07-23T01:18:07;20.20;99.90
24904;DHT22;12960;50.322;11.124;2022-07-23T01:19:09;20.30;1.00
24904;DHT22;12960;50.322;11.124;2022-07-23T01:20:10;20.20;1.00
24904;DHT22;12960;50.322;11.124;2022-07-23T01:21:12;20.20;1.00
24904;DHT22;12960;50.322;11.124;2022-07-23T01:22:18;20.20;1.00
24904;DHT22;12960;50.322;11.124;2022-07-23T01:23:19;20.20;1.00
24904;DHT22;12960;50.322;11.124;2022-07-23T01:24:20;20.10;99.90
24904;DHT22;12960;50.322;11.124;2022-07-23T01:25:22;20.10;99.90
24904;DHT22;12960;50.322;11.124;2022-07-23T01:26:23;20.10;1.00
24904;DHT22;12960;50.322;11.124;2022-07-23T01:27:24;20.10;1.00
24904;DHT22;12960;50.322;11.124;2022-07-23T01:28:25;20.10;44.10
24904;DHT22;12960;50.322;11.124;2022-07-23T01:29:26;20.10;1.00
24904;DHT22;12960;50.322;11.124;2022-07-23T01:30:27;20.10;1.00
24904;DHT22;12960;50.322;11.124;2022-07-23T01:31:28;20.10;1.00
24904;DHT22;12960;50.322;11.124;2022-07-23T01:32:29;20.20;2.30
24904;DHT22;12960;50.322;11.124;2022-07-23T01:33:30;20.20;1.00
24904;DHT22;12960;50.322;11.124;2022-07-23T01:34:31;20.20;1.00
24904;DHT22;12960;50.322;11.124;2022-07-23T01:35:32;20.20;1.00
24904;DHT22;12960;50.322;11.124;2022-07-23T01:36:34;20.20;1.00
24904;DHT22;12960;50.322;11.124;2022-07-23T01:37:36;20.20;99.90
24904;DHT22;12960;50.322;11.124;2022-07-23T01:38:37;20.30;99.90
24904;DHT22;12960;50.322;11.124;2022-07-23T01:39:38;20.30;99.90
24904;DHT22;12960;50.322;11.124;2022-07-23T01:40:40;20.30;99.90
24904;DHT22;12960;50.322;11.124;2022-07-23T01:41:41;20.30;99.90
24904;DHT22;12960;50.322;11.124;2022-07-23T01:42:42;20.20;99.90
24904;DHT22;12960;50.322;11.124;2022-07-23T01:43:43;20.20;99.90
24904;DHT22;12960;50.322;11.124;2022-07-23T01:44:45;20.20;99.90
24904;DHT22;12960;50.322;11.124;2022-07-23T01:45:46;20.20;99.90
24904;DHT22;12960;50.322;11.124;2022-07-23T01:46:47;20.20;1.00
24904;DHT22;12960;50.322;11.124;2022-07-23T01:47:51;20.20;99.90
24904;DHT22;12960;50.322;11.124;2022-07-23T01:48:55;20.20;99.90
24904;DHT22;12960;50.322;11.124;2022-07-23T01:49:56;20.10;1.00
24904;DHT22;12960;50.322;11.124;2022-07-23T01:51:01;20.10;1.00
24904;DHT22;12960;50.322;11.124;2022-07-23T01:52:05;20.10;1.00
24904;DHT22;12960;50.322;11.124;2022-07-23T01:53:07;20.20;1.00
24904;DHT22;12960;50.322;11.124;2022-07-23T01:54:08;20.10;1.00
24904;DHT22;12960;50.322;11.124;2022-07-23T01:55:09;20.10;1.00
24904;DHT22;12960;50.322;11.124;2022-07-23T01:56:13;20.10;77.80
24904;DHT22;12960;50.322;11.124;2022-07-23T01:57:22;20.00;99.90
24904;DHT22;12960;50.322;11.124;2022-07-23T01:58:29;20.00;1.00
24904;DHT22;12960;50.322;11.124;2022-07-23T01:59:30;20.00;99.90
24904;DHT22;12960;50.322;11.124;2022-07-23T02:00:32;19.90;99.90
24904;DHT22;12960;50.322;11.124;2022-07-23T02:01:36;19.90;1.00
24904;DHT22;12960;50.322;11.124;2022-07-23T02:02:40;19.80;23.70
24904;DHT22;12960;50.322;11.124;2022-07-23T02:03:41;19.80;99.90
24904;DHT22;12960;50.322;11.124;2022-07-23T02:04:44;19.80;99.90
24904;DHT22;12960;50.322;11.124;2022-07-23T02:05:45;19.70;1.00
24904;DHT22;12960;50.322;11.124;2022-07-23T02:06:47;19.70;1.00
24904;DHT22;12960;50.322;11.124;2022-07-23T02:07:48;19.60;1.00
24904;DHT22;12960;50.322;11.124;2022-07-23T02:08:49;19.60;99.90
24904;DHT22;12960;50.322;11.124;2022-07-23T02:09:50;19.60;97.80
24904;DHT22;12960;50.322;11.124;2022-07-23T02:10:53;19.60;99.90
24904;DHT22;12960;50.322;11.124;2022-07-23T02:11:55;19.60;99.90
24904;DHT22;12960;50.322;11.124;2022-07-23T02:12:56;19.60;99.90
24904;DHT22;12960;50.322;11.124;2022-07-23T02:13:57;19.60;99.90
24904;DHT22;12960;50.322;11.124;2022-07-23T02:14:58;19.60;99.90
24904;DHT22;12960;50.322;11.124;2022-07-23T02:15:59;19.60;99.90
24904;DHT22;12960;50.322;11.124;2022-07-23T02:17:00;19.60;99.90
24904;DHT22;12960;50.322;11.124;2022-07-23T02:18:01;19.60;99.90
24904;DHT22;12960;50.322;11.124;2022-07-23T02:19:05;19.60;99.90
24904;DHT22;12960;50.322;11.124;2022-07-23T02:20:08;19.50;99.90
24904;DHT22;12960;50.322;11.124;2022-07-23T02:21:10;19.50;99.90
24904;DHT22;12960;50.322;11.124;2022-07-23T02:22:11;19.50;99.90
24904;DHT22;12960;50.322;11.124;2022-07-23T02:23:12;19.50;99.90
24904;DHT22;12960;50.322;11.124;2022-07-23T02:24:13;19.50;99.90
24904;DHT22;12960;50.322;11.124;2022-07-23T02:25:17;19.50;99.90
24904;DHT22;12960;50.322;11.124;2022-07-23T02:26:18;19.40;99.90
24904;DHT22;12960;50.322;11.124;2022-07-23T02:27:19;19.40;1.00
24904;DHT22;12960;50.322;11.124;2022-07-23T02:28:20;19.40;1.00
24904;DHT22;12960;50.322;11.124;2022-07-23T02:29:21;19.40;99.90
24904;DHT22;12960;50.322;11.124;2022-07-23T02:30:22;19.40;1.00
24904;DHT22;12960;50.322;11.124;2022-07-23T02:31:23;19.40;1.00
24904;DHT22;12960;50.322;11.124;2022-07-23T02:32:24;19.40;1.00
24904;DHT22;12960;50.322;11.124;2022-07-23T02:33:25;19.40;1.00
24904;DHT22;12960;50.322;11.124;2022-07-23T02:34:26;19.40;1.00
24904;DHT22;12960;50.322;11.124;2022-07-23T02:35:27;19.50;99.90
24904;DHT22;12960;50.322;11.124;2022-07-23T02:36:28;19.40;1.00
24904;DHT22;12960;50.322;11.124;2022-07-23T02:37:29;19.40;99.90
24904;DHT22;12960;50.322;11.124;2022-07-23T02:38:31;19.30;1.00
24904;DHT22;12960;50.322;11.124;2022-07-23T02:39:32;19.30;1.00
24904;DHT22;12960;50.322;11.124;2022-07-23T02:40:33;19.30;1.00
24904;DHT22;12960;50.322;11.124;2022-07-23T02:41:34;19.40;1.00
24904;DHT22;12960;50.322;11.124;2022-07-23T02:42:35;19.30;1.00
24904;DHT22;12960;50.322;11.124;2022-07-23T02:43:36;19.30;1.00
24904;DHT22;12960;50.322;11.124;2022-07-23T02:44:39;19.20;1.00
24904;DHT22;12960;50.322;11.124;2022-07-23T02:45:43;19.20;1.00
24904;DHT22;12960;50.322;11.124;2022-07-23T02:46:44;19.20;1.00
24904;DHT22;12960;50.322;11.124;2022-07-23T02:47:45;19.20;1.00
24904;DHT22;12960;50.322;11.124;2022-07-23T02:48:46;19.20;1.00
24904;DHT22;12960;50.322;11.124;2022-07-23T02:49:47;19.20;1.00
24904;DHT22;12960;50.322;11.124;2022-07-23T02:50:51;19.20;1.00
24904;DHT22;12960;50.322;11.124;2022-07-23T02:51:53;19.20;1.00
24904;DHT22;12960;50.322;11.124;2022-07-23T02:52:54;19.20;1.00
24904;DHT22;12960;50.322;11.124;2022-07-23T02:53:55;19.20;1.00
24904;DHT22;12960;50.322;11.124;2022-07-23T02:54:56;19.20;1.00
24904;DHT22;12960;50.322;11.124;2022-07-23T02:55:57;19.20;1.00
24904;DHT22;12960;50.322;11.124;2022-07-23T02:56:58;19.20;1.00
24904;DHT22;12960;50.322;11.124;2022-07-23T02:57:59;19.20;1.00
24904;DHT22;12960;50.322;11.124;2022-07-23T02:59:03;19.10;1.00
24904;DHT22;12960;50.322;11.124;2022-07-23T03:00:05;19.10;1.00
24904;DHT22;12960;50.322;11.124;2022-07-23T03:01:07;19.00;1.00
24904;DHT22;12960;50.322;11.124;2022-07-23T03:02:08;19.00;1.00
24904;DHT22;12960;50.322;11.124;2022-07-23T03:03:09;18.90;1.00
24904;DHT22;12960;50.322;11.124;2022-07-23T03:04:10;18.90;1.00
24904;DHT22;12960;50.322;11.124;2022-07-23T03:05:11;18.90;1.00
24904;DHT22;12960;50.322;11.124;2022-07-23T03:06:12;18.90;1.00
24904;DHT22;12960;50.322;11.124;2022-07-23T03:07:14;18.90;1.00
24904;DHT22;12960;50.322;11.124;2022-07-23T03:08:15;18.80;1.00
24904;DHT22;12960;50.322;11.124;2022-07-23T03:09:16;18.80;1.00
24904;DHT22;12960;50.322;11.124;2022-07-23T03:10:17;18.90;1.00
24904;DHT22;12960;50.322;11.124;2022-07-23T03:11:18;18.90;1.00
24904;DHT22;12960;50.322;11.124;2022-07-23T03:12:19;18.90;1.00
24904;DHT22;12960;50.322;11.124;2022-07-23T03:13:20;18.90;1.00
24904;DHT22;12960;50.322;11.124;2022-07-23T03:14:21;18.90;1.00
24904;DHT22;12960;50.322;11.124;2022-07-23T03:15:28;18.90;1.00
24904;DHT22;12960;50.322;11.124;2022-07-23T03:16:29;18.90;1.00
24904;DHT22;12960;50.322;11.124;2022-07-23T03:17:30;18.90;1.00
24904;DHT22;12960;50.322;11.124;2022-07-23T03:18:31;18.90;1.00
24904;DHT22;12960;50.322;11.124;2022-07-23T03:19:36;18.90;1.00
24904;DHT22;12960;50.322;11.124;2022-07-23T03:20:41;18.90;1.00
24904;DHT22;12960;50.322;11.124;2022-07-23T03:21:42;18.90;1.00
24904;DHT22;12960;50.322;11.124;2022-07-23T03:22:43;18.90;1.00
24904;DHT22;12960;50.322;11.124;2022-07-23T03:23:44;18.80;1.00
24904;DHT22;12960;50.322;11.124;2022-07-23T03:24:45;18.80;1.00
24904;DHT22;12960;50.322;11.124;2022-07-23T03:25:55;18.80;1.00
24904;DHT22;12960;50.322;11.124;2022-07-23T03:26:56;18.80;1.00
24904;DHT22;12960;50.322;11.124;2022-07-23T03:28:00;18.80;1.00
24904;DHT22;12960;50.322;11.124;2022-07-23T03:29:01;18.80;1.00
24904;DHT22;12960;50.322;11.124;2022-07-23T03:30:04;18.80;1.00
24904;DHT22;12960;50.322;11.124;2022-07-23T03:31:05;18.80;1.00
24904;DHT22;12960;50.322;11.124;2022-07-23T03:32:06;18.80;1.00
24904;DHT22;12960;50.322;11.124;2022-07-23T03:33:08;18.70;1.00
24904;DHT22;12960;50.322;11.124;2022-07-23T03:34:09;18.70;1.00
24904;DHT22;12960;50.322;11.124;2022-07-23T03:35:13;18.70;1.00
24904;DHT22;12960;50.322;11.124;2022-07-23T03:36:17;18.70;1.00
24904;DHT22;12960;50.322;11.124;2022-07-23T03:37:19;18.60;1.00
24904;DHT22;12960;50.322;11.124;2022-07-23T03:38:24;18.60;1.00
24904;DHT22;12960;50.322;11.124;2022-07-23T03:39:25;18.60;1.00
24904;DHT22;12960;50.322;11.124;2022-07-23T03:40:32;18.60;1.00
24904;DHT22;12960;50.322;11.124;2022-07-23T03:41:33;18.60;1.00
24904;DHT22;12960;50.322;11.124;2022-07-23T03:42:34;18.60;1.00
24904;DHT22;12960;50.322;11.124;2022-07-23T03:43:35;18.60;1.00
24904;DHT22;12960;50.322;11.124;2022-07-23T03:44:36;18.60;1.00
24904;DHT22;12960;50.322;11.124;2022-07-23T03:45:42;18.60;1.00
24904;DHT22;12960;50.322;11.124;2022-07-23T03:46:43;18.60;1.00
24904;DHT22;12960;50.322;11.124;2022-07-23T03:47:44;18.60;1.00
24904;DHT22;12960;50.322;11.124;2022-07-23T03:48:45;18.60;1.00
24904;DHT22;12960;50.322;11.124;2022-07-23T03:49:47;18.60;1.00
24904;DHT22;12960;50.322;11.124;2022-07-23T03:50:48;18.60;1.00
24904;DHT22;12960;50.322;11.124;2022-07-23T03:51:49;18.50;1.00
24904;DHT22;12960;50.322;11.124;2022-07-23T03:52:50;18.60;1.00
24904;DHT22;12960;50.322;11.124;2022-07-23T03:53:51;18.60;1.00
24904;DHT22;12960;50.322;11.124;2022-07-23T03:54:58;18.60;1.00
24904;DHT22;12960;50.322;11.124;2022-07-23T03:55:59;18.60;1.00
24904;DHT22;12960;50.322;11.124;2022-07-23T03:57:00;18.60;1.00
24904;DHT22;12960;50.322;11.124;2022-07-23T03:58:10;18.60;1.00
24904;DHT22;12960;50.322;11.124;2022-07-23T03:59:11;18.60;1.00
24904;DHT22;12960;50.322;11.124;2022-07-23T04:00:13;18.60;1.00
24904;DHT22;12960;50.322;11.124;2022-07-23T04:01:14;18.60;1.00
24904;DHT22;12960;50.322;11.124;2022-07-23T04:02:15;18.60;1.00
24904;DHT22;12960;50.322;11.124;2022-07-23T04:03:16;18.50;1.00
24904;DHT22;12960;50.322;11.124;2022-07-23T04:04:17;18.50;1.00
24904;DHT22;12960;50.322;11.124;2022-07-23T04:05:21;18.50;1.00
24904;DHT22;12960;50.322;11.124;2022-07-23T04:06:22;18.60;1.00
24904;DHT22;12960;50.322;11.124;2022-07-23T04:07:23;18.50;1.00
24904;DHT22;12960;50.322;11.124;2022-07-23T04:08:24;18.50;1.00
24904;DHT22;12960;50.322;11.124;2022-07-23T04:09:26;18.50;1.00
24904;DHT22;12960;50.322;11.124;2022-07-23T04:10:27;18.50;1.00
24904;DHT22;12960;50.322;11.124;2022-07-23T04:11:28;18.70;1.00
24904;DHT22;12960;50.322;11.124;2022-07-23T04:12:29;18.70;1.00
24904;DHT22;12960;50.322;11.124;2022-07-23T04:13:33;18.80;1.00
24904;DHT22;12960;50.322;11.124;2022-07-23T04:14:34;18.90;1.00
24904;DHT22;12960;50.322;11.124;2022-07-23T04:15:35;19.00;99.90
24904;DHT22;12960;50.322;11.124;2022-07-23T04:16:36;19.10;99.90
24904;DHT22;12960;50.322;11.124;2022-07-23T04:17:37;19.10;99.90
24904;DHT22;12960;50.322;11.124;2022-07-23T04:18:38;19.10;99.90
24904;DHT22;12960;50.322;11.124;2022-07-23T04:19:39;19.20;99.90
24904;DHT22;12960;50.322;11.124;2022-07-23T04:20:44;19.10;99.90
24904;DHT22;12960;50.322;11.124;2022-07-23T04:21:45;19.20;99.90
24904;DHT22;12960;50.322;11.124;2022-07-23T04:22:46;19.20;99.90
24904;DHT22;12960;50.322;11.124;2022-07-23T04:23:47;19.20;99.90
24904;DHT22;12960;50.322;11.124;2022-07-23T04:24:51;19.10;99.90
24904;DHT22;12960;50.322;11.124;2022-07-23T04:25:52;19.20;99.90
24904;DHT22;12960;50.322;11.124;2022-07-23T04:27:03;19.10;99.90
24904;DHT22;12960;50.322;11.124;2022-07-23T04:28:04;19.10;99.90
24904;DHT22;12960;50.322;11.124;2022-07-23T04:29:08;19.10;99.90
24904;DHT22;12960;50.322;11.124;2022-07-23T04:30:10;19.00;99.90
24904;DHT22;12960;50.322;11.124;2022-07-23T04:31:11;19.00;99.90
24904;DHT22;12960;50.322;11.124;2022-07-23T04:32:15;19.00;99.90
24904;DHT22;12960;50.322;11.124;2022-07-23T04:33:16;19.00;99.90
24904;DHT22;12960;50.322;11.124;2022-07-23T04:34:20;19.00;99.90
24904;DHT22;12960;50.322;11.124;2022-07-23T04:35:21;19.00;1.00
24904;DHT22;12960;50.322;11.124;2022-07-23T04:36:22;19.00;99.90
24904;DHT22;12960;50.322;11.124;2022-07-23T04:37:23;19.00;99.90
24904;DHT22;12960;50.322;11.124;2022-07-23T04:38:24;19.00;99.90
24904;DHT22;12960;50.322;11.124;2022-07-23T04:39:25;19.00;99.90
24904;DHT22;12960;50.322;11.124;2022-07-23T04:40:27;19.00;99.90
24904;DHT22;12960;50.322;11.124;2022-07-23T04:41:28;19.00;99.90
24904;DHT22;12960;50.322;11.124;2022-07-23T04:42:29;19.10;99.90
24904;DHT22;12960;50.322;11.124;2022-07-23T04:43:30;19.10;99.90
24904;DHT22;12960;50.322;11.124;2022-07-23T04:44:31;19.10;99.90
24904;DHT22;12960;50.322;11.124;2022-07-23T04:45:32;19.00;99.90
24904;DHT22;12960;50.322;11.124;2022-07-23T04:46:33;19.00;99.90
24904;DHT22;12960;50.322;11.124;2022-07-23T04:47:34;19.10;99.90
24904;DHT22;12960;50.322;11.124;2022-07-23T04:48:35;19.10;99.90
24904;DHT22;12960;50.322;11.124;2022-07-23T04:49:36;19.10;99.90
24904;DHT22;12960;50.322;11.124;2022-07-23T04:50:37;19.10;99.90
24904;DHT22;12960;50.322;11.124;2022-07-23T04:51:38;19.10;99.90
24904;DHT22;12960;50.322;11.124;2022-07-23T04:52:39;19.10;99.90
24904;DHT22;12960;50.322;11.124;2022-07-23T04:53:40;19.10;99.90
24904;DHT22;12960;50.322;11.124;2022-07-23T04:54:41;19.10;99.90
24904;DHT22;12960;50.322;11.124;2022-07-23T04:55:42;19.10;99.90
24904;DHT22;12960;50.322;11.124;2022-07-23T04:56:46;19.10;99.90
24904;DHT22;12960;50.322;11.124;2022-07-23T04:57:47;19.10;99.90
24904;DHT22;12960;50.322;11.124;2022-07-23T04:58:51;19.10;99.90
24904;DHT22;12960;50.322;11.124;2022-07-23T04:59:52;19.00;99.90
24904;DHT22;12960;50.322;11.124;2022-07-23T05:00:53;19.10;99.90
24904;DHT22;12960;50.322;11.124;2022-07-23T05:01:54;19.20;99.90
24904;DHT22;12960;50.322;11.124;2022-07-23T05:02:55;19.20;99.90
24904;DHT22;12960;50.322;11.124;2022-07-23T05:03:56;19.20;99.90
24904;DHT22;12960;50.322;11.124;2022-07-23T05:04:57;19.20;99.90
24904;DHT22;12960;50.322;11.124;2022-07-23T05:06:01;19.20;99.90
24904;DHT22;12960;50.322;11.124;2022-07-23T05:07:05;19.20;99.90
24904;DHT22;12960;50.322;11.124;2022-07-23T05:08:06;19.20;99.90
24904;DHT22;12960;50.322;11.124;2022-07-23T05:09:07;19.20;99.90
24904;DHT22;12960;50.322;11.124;2022-07-23T05:10:11;19.20;99.90
24904;DHT22;12960;50.322;11.124;2022-07-23T05:11:12;19.20;99.90
24904;DHT22;12960;50.322;11.124;2022-07-23T05:12:13;19.30;99.90
24904;DHT22;12960;50.322;11.124;2022-07-23T05:13:15;19.30;99.90
24904;DHT22;12960;50.322;11.124;2022-07-23T05:14:19;19.40;99.90
24904;DHT22;12960;50.322;11.124;2022-07-23T05:15:21;19.50;99.90
24904;DHT22;12960;50.322;11.124;2022-07-23T05:16:25;19.50;3.30
24904;DHT22;12960;50.322;11.124;2022-07-23T05:17:26;19.40;30.00
24904;DHT22;12960;50.322;11.124;2022-07-23T05:18:32;19.30;99.90
24904;DHT22;12960;50.322;11.124;2022-07-23T05:19:34;19.30;99.90
24904;DHT22;12960;50.322;11.124;2022-07-23T05:20:35;19.20;99.90
24904;DHT22;12960;50.322;11.124;2022-07-23T05:21:36;19.20;99.90
24904;DHT22;12960;50.322;11.124;2022-07-23T05:22:37;19.20;99.90
24904;DHT22;12960;50.322;11.124;2022-07-23T05:23:38;19.10;99.90
24904;DHT22;12960;50.322;11.124;2022-07-23T05:24:39;19.10;99.90
24904;DHT22;12960;50.322;11.124;2022-07-23T05:25:43;19.10;99.90
24904;DHT22;12960;50.322;11.124;2022-07-23T05:26:44;19.10;99.90
24904;DHT22;12960;50.322;11.124;2022-07-23T05:27:45;19.20;99.90
24904;DHT22;12960;50.322;11.124;2022-07-23T05:28:46;19.20;99.90
24904;DHT22;12960;50.322;11.124;2022-07-23T05:29:47;19.20;99.90
24904;DHT22;12960;50.322;11.124;2022-07-23T05:30:48;19.20;99.90
24904;DHT22;12960;50.322;11.124;2022-07-23T05:31:49;19.20;99.90
24904;DHT22;12960;50.322;11.124;2022-07-23T05:32:50;19.30;99.90
24904;DHT22;12960;50.322;11.124;2022-07-23T05:33:51;19.30;99.90
24904;DHT22;12960;50.322;11.124;2022-07-23T05:34:52;19.40;99.90
24904;DHT22;12960;50.322;11.124;2022-07-23T05:35:53;19.40;99.90
24904;DHT22;12960;50.322;11.124;2022-07-23T05:36:54;19.50;99.90
24904;DHT22;12960;50.322;11.124;2022-07-23T05:38:01;19.60;57.70
24904;DHT22;12960;50.322;11.124;2022-07-23T05:39:02;19.70;1.00
24904;DHT22;12960;50.322;11.124;2022-07-23T05:40:05;19.90;1.00
24904;DHT22;12960;50.322;11.124;2022-07-23T05:41:08;19.90;1.00
24904;DHT22;12960;50.322;11.124;2022-07-23T05:42:09;20.00;1.00
24904;DHT22;12960;50.322;11.124;2022-07-23T05:43:10;20.00;99.90
24904;DHT22;12960;50.322;11.124;2022-07-23T05:44:12;20.00;1.00
24904;DHT22;12960;50.322;11.124;2022-07-23T05:45:13;20.10;1.00
24904;DHT22;12960;50.322;11.124;2022-07-23T05:46:14;20.10;99.90
24904;DHT22;12960;50.322;11.124;2022-07-23T05:47:15;20.10;1.00
24904;DHT22;12960;50.322;11.124;2022-07-23T05:48:16;20.10;1.00
24904;DHT22;12960;50.322;11.124;2022-07-23T05:49:17;20.10;99.90
24904;DHT22;12960;50.322;11.124;2022-07-23T05:50:18;20.00;99.90
24904;DHT22;12960;50.322;11.124;2022-07-23T05:51:23;19.90;1.00
24904;DHT22;12960;50.322;11.124;2022-07-23T05:52:24;19.90;1.00
24904;DHT22;12960;50.322;11.124;2022-07-23T05:53:25;20.10;1.00
24904;DHT22;12960;50.322;11.124;2022-07-23T05:54:26;20.10;1.00
24904;DHT22;12960;50.322;11.124;2022-07-23T05:55:27;20.30;99.90
24904;DHT22;12960;50.322;11.124;2022-07-23T05:56:32;20.20;99.90
24904;DHT22;12960;50.322;11.124;2022-07-23T05:57:33;20.30;99.90
24904;DHT22;12960;50.322;11.124;2022-07-23T05:58:37;20.30;99.90
24904;DHT22;12960;50.322;11.124;2022-07-23T05:59:38;20.20;99.90
24904;DHT22;12960;50.322;11.124;2022-07-23T06:00:39;20.10;99.90
24904;DHT22;12960;50.322;11.124;2022-07-23T06:01:40;20.10;1.00
24904;DHT22;12960;50.322;11.124;2022-07-23T06:02:47;19.90;1.00
24904;DHT22;12960;50.322;11.124;2022-07-23T06:03:48;19.90;1.00
24904;DHT22;12960;50.322;11.124;2022-07-23T06:04:55;19.80;1.00
24904;DHT22;12960;50.322;11.124;2022-07-23T06:05:56;19.70;91.10
24904;DHT22;12960;50.322;11.124;2022-07-23T06:06:57;19.60;79.40
24904;DHT22;12960;50.322;11.124;2022-07-23T06:08:01;19.60;99.90
24904;DHT22;12960;50.322;11.124;2022-07-23T06:09:03;19.70;99.90
24904;DHT22;12960;50.322;11.124;2022-07-23T06:10:08;19.80;99.90
24904;DHT22;12960;50.322;11.124;2022-07-23T06:11:09;19.80;62.80
24904;DHT22;12960;50.322;11.124;2022-07-23T06:12:10;19.80;16.00
24904;DHT22;12960;50.322;11.124;2022-07-23T06:13:18;19.80;1.00
24904;DHT22;12960;50.322;11.124;2022-07-23T06:14:19;19.90;1.00
24904;DHT22;12960;50.322;11.124;2022-07-23T06:15:20;19.90;1.00
24904;DHT22;12960;50.322;11.124;2022-07-23T06:16:21;19.90;1.00
24904;DHT22;12960;50.322;11.124;2022-07-23T06:17:22;19.90;1.00
24904;DHT22;12960;50.322;11.124;2022-07-23T06:18:23;19.90;1.00
24904;DHT22;12960;50.322;11.124;2022-07-23T06:19:29;19.90;1.00
24904;DHT22;12960;50.322;11.124;2022-07-23T06:20:30;20.00;1.00
24904;DHT22;12960;50.322;11.124;2022-07-23T06:21:38;19.90;1.00
24904;DHT22;12960;50.322;11.124;2022-07-23T06:22:41;20.10;1.00
24904;DHT22;12960;50.322;11.124;2022-07-23T06:23:42;20.00;1.00
24904;DHT22;12960;50.322;11.124;2022-07-23T06:24:50;19.90;1.00
24904;DHT22;12960;50.322;11.124;2022-07-23T06:25:52;20.00;1.00
24904;DHT22;12960;50.322;11.124;2022-07-23T06:26:53;19.90;1.00
24904;DHT22;12960;50.322;11.124;2022-07-23T06:27:54;19.90;1.00
24904;DHT22;12960;50.322;11.124;2022-07-23T06:28:55;19.90;1.00